Latest Weather Observations for Albury

IDN60801

Issued at 2:02 pm EST Sunday 1 May 2016 (issued every 30 minutes, with the page automatically refreshed every 10 minutes)

About weather observations | Map of weather stations | Latest weather observations for NSW | Other Formats
Station Details ID: 072160 Name: ALBURY AIRPORT AWS Lat: -36.07 Lon: 146.95 Height: 163.5 m
Data from the previous 72 hours. | See also: Recent months at Albury
Date/Time
EST
Temp
°C
App
Temp
°C
Dew
Point
Rel
Hum
%
Delta-T
°C
Wind Press
QNH
hPa
Press
MSL
hPa
Rain
since 9 am
mm
Dir
 
Spd
km/h
Gust
km/h
Spd
kts
Gust
kts
01/02:00pm 18.2 11.1 6.4 46 5.9 WNW 33 50 18 27 1012.3 1012.4 0.0
01/01:42pm 18.6 12.5 6.4 45 6.1 WNW 28 46 15 25 1012.2 1012.3 0.0
01/01:30pm 18.4 11.9 6.6 46 5.9 WNW 30 39 16 21 1012.2 1012.3 0.0
01/01:00pm 18.7 11.8 6.5 45 6.1 WNW 32 56 17 30 1012.1 1012.2 0.0
01/12:40pm 19.0 11.5 4.7 39 6.9 WNW 33 52 18 28 1012.1 1012.2 0.0
01/12:30pm 18.8 11.2 5.6 42 6.5 WNW 35 50 19 27 1012.0 1012.1 0.0
01/12:00pm 18.1 10.5 6.0 45 6.0 WNW 35 52 19 28 1012.4 1012.5 0.0
01/11:30am 18.5 11.2 7.3 48 5.7 NW 35 54 19 29 1012.5 1012.6 0.0
01/11:07am 18.7 12.7 8.7 52 5.2 WNW 30 48 16 26 1012.6 1012.7 0.0
01/11:00am 18.0 10.7 7.1 49 5.5 WNW 35 48 19 26 1012.5 1012.6 0.0
01/10:30am 16.9 10.9 8.6 58 4.3 WNW 30 44 16 24 1012.6 1012.7 0.0
01/10:04am 18.1 12.6 10.5 61 4.1 NW 30 48 16 26 1012.4 1012.5 0.0
01/10:00am 18.1 12.7 11.0 63 3.9 NW 30 44 16 24 1012.4 1012.5 0.0
01/09:30am 17.3 12.6 12.0 71 2.9 WNW 28 39 15 21 1012.5 1012.3 0.0
01/09:00am 16.7 11.6 12.0 74 2.6 WNW 30 46 16 25 1012.3 1012.1 4.0
01/08:52am 16.8 12.0 11.5 71 2.9 WNW 28 46 15 25 1012.2 1012.0 4.0
01/08:30am 17.1 13.4 12.6 75 2.5 WNW 24 33 13 18 1012.0 1011.8 4.0
01/08:00am 16.3 13.5 12.5 78 2.1 WNW 19 30 10 16 1011.3 1011.1 4.0
01/07:30am 16.6 14.4 13.3 81 1.9 WNW 17 22 9 12 1010.6 1010.4 4.0
01/07:00am 17.0 14.9 13.7 81 1.9 WNW 17 24 9 13 1010.0 1009.8 4.0
01/06:43am 17.4 14.2 14.3 82 1.8 WNW 24 32 13 17 1010.0 1009.8 4.0
01/06:30am 17.9 13.5 15.2 84 1.6 WNW 32 44 17 24 1009.7 1009.4 4.0
01/06:00am 18.2 14.5 16.0 87 1.3 NNW 30 43 16 23 1008.8 1008.6 4.0
01/05:51am 18.2 14.8 15.8 86 1.4 NNW 28 41 15 22 1008.3 1008.1 4.0
01/05:47am 18.1 14.3 15.7 86 1.4 NNW 30 46 16 25 1008.6 1008.4 4.0
01/05:35am 18.4 14.0 15.6 84 1.7 NNW 33 52 18 28 1008.7 1008.5 4.0
01/05:31am 18.5 14.1 15.7 84 1.7 NNW 33 52 18 28 1008.7 1008.5 4.0
01/05:30am 18.4 14.0 15.6 84 1.7 NNW 33 52 18 28 1008.7 1008.5 4.0
01/05:27am 18.6 14.2 15.7 83 1.7 NNW 33 52 18 28 1008.5 1008.3 4.0
01/05:04am 18.4 16.7 16.2 87 1.3 NNW 20 37 11 20 1008.5 1008.3 3.8
01/05:00am 18.2 16.2 16.4 89 1.1 NNW 22 37 12 20 1008.5 1008.3 3.8
01/04:50am 18.5 15.4 16.5 88 1.2 N 28 46 15 25 1008.5 1008.3 3.8
01/04:30am 18.1 15.5 16.8 92 0.8 N 26 41 14 22 1008.1 1007.9 3.8
01/04:29am 18.1 15.5 16.8 92 0.8 N 26 41 14 22 1008.1 1007.9 3.8
01/04:15am 18.3 15.8 17.0 92 0.8 NNW 26 39 14 21 1008.4 1008.2 3.2
01/04:04am 18.8 15.0 16.8 88 1.2 NNW 32 41 17 22 1008.6 1008.4 1.4
01/04:00am 18.8 15.0 16.6 87 1.3 NNW 32 43 17 23 1008.2 1008.0 1.4
01/03:45am 18.9 14.8 16.5 86 1.4 N 33 52 18 28 1008.5 1008.3 1.0
01/03:42am 19.2 14.8 16.6 85 1.6 N 35 52 19 28 1008.4 1008.2 0.8
01/03:40am 19.2 15.1 16.4 84 1.7 N 33 52 18 28 1008.4 1008.2 0.8
01/03:30am 19.3 14.8 16.3 83 1.8 N 35 61 19 33 1008.5 1008.3 0.8
01/03:21am 19.6 16.5 16.6 83 1.8 NNE 28 63 15 34 1008.2 1008.0 0.8
01/03:20am 19.5 16.8 16.7 84 1.7 NNE 26 63 14 34 1008.3 1008.1 0.8
01/03:00am 18.1 15.8 15.7 86 1.4 NE 22 28 12 15 1006.9 1006.7 0.8
01/02:30am 16.1 16.8 16.1 100 0.0 ESE 7 13 4 7 1008.5 1008.3 0.0
01/02:00am 14.3 14.0 14.3 100 0.0 SSE 9 11 5 6 1009.8 1009.6 0.0
01/01:30am 13.5 13.8 13.5 100 0.0 SE 4 9 2 5 1010.9 1010.7 0.0
01/01:24am 13.4 14.5 13.4 100 0.0 CALM 0 0 0 0 1011.0 1010.8 0.0
01/01:05am 13.6 13.6 13.6 100 0.0 E 6 6 3 3 1011.2 1011.0 0.0
01/01:00am 13.6 13.6 13.6 100 0.0 E 6 6 3 3 1011.2 1011.0 0.0
01/12:30am 13.6 13.5 13.4 99 0.1 E 6 6 3 3 1011.6 1011.4 0.0
01/12:01am 14.4 15.4 14.4 100 0.0 ESE 2 7 1 4 1012.3 1012.1 0.0
01/12:00am 14.5 15.9 14.3 99 0.1 CALM 0 7 0 4 1012.3 1012.1 0.0
 
Date/Time
EST
Temp
°C
App
Temp
°C
Dew
Point
Rel
Hum
%
Delta-T
°C
Wind Press
QNH
hPa
Press
MSL
hPa
Rain
since 9 am
mm
Dir
 
Spd
km/h
Gust
km/h
Spd
kts
Gust
kts
30/11:40pm 14.1 15.2 13.6 97 0.3 CALM 0 0 0 0 1012.9 1012.7 0.0
30/11:30pm 14.7 16.1 14.5 99 0.1 CALM 0 0 0 0 1013.2 1013.0 0.0
30/11:00pm 14.9 15.7 14.9 100 0.0 ESE 4 7 2 4 1013.7 1013.5 0.0
30/10:30pm 14.4 15.7 14.2 99 0.1 CALM 0 0 0 0 1014.3 1014.1 0.0
30/10:00pm 14.8 14.8 14.2 96 0.3 ESE 7 9 4 5 1014.5 1014.3 0.0
30/09:30pm 15.3 15.5 14.3 94 0.6 ENE 6 9 3 5 1014.8 1014.6 0.0
30/09:00pm 15.2 15.2 13.7 91 0.8 ENE 6 7 3 4 1015.0 1014.9 0.0
30/08:30pm 15.6 15.8 14.3 92 0.7 E 6 7 3 4 1015.0 1014.9 0.0
30/08:00pm 15.1 16.3 13.8 92 0.7 CALM 0 0 0 0 1014.9 1014.7 0.0
30/07:30pm 17.0 17.3 15.0 88 1.2 ENE 7 7 4 4 1014.7 1014.5 0.0
30/07:00pm 16.5 16.9 13.8 84 1.5 ENE 4 9 2 5 1014.7 1014.5 0.0
30/06:30pm 17.0 17.0 14.3 84 1.6 NE 7 9 4 5 1014.8 1014.6 0.0
30/06:00pm 18.4 18.7 14.5 78 2.3 NE 6 7 3 4 1014.9 1014.7 0.0
30/05:30pm 19.5 19.6 14.5 73 2.9 NNE 7 9 4 5 1014.9 1014.7 0.0
30/05:00pm 20.8 20.0 15.1 70 3.4 N 13 17 7 9 1015.1 1015.0 0.0
30/04:30pm 21.9 21.1 15.0 65 4.1 N 13 17 7 9 1015.1 1015.0 0.0
30/04:00pm 22.3 20.8 15.2 64 4.3 NNW 17 22 9 12 1015.1 1015.0 0.0
30/03:30pm 22.6 20.8 15.4 64 4.3 NNW 19 26 10 14 1015.2 1015.1 0.0
30/03:00pm 22.5 20.7 15.4 64 4.3 N 19 30 10 16 1015.2 1015.1 0.0
30/02:30pm 22.1 20.5 15.9 68 3.8 N 19 24 10 13 1015.3 1015.2 0.0
30/02:00pm 23.3 22.4 16.8 67 4.0 N 17 24 9 13 1015.3 1015.2 0.0
30/01:56pm 23.0 22.3 16.3 66 4.1 N 15 20 8 11 1015.3 1015.2 0.0
30/01:46pm 22.2 21.4 16.0 68 3.8 NNE 15 24 8 13 1015.3 1015.2 0.0
30/01:30pm 22.2 21.6 16.7 71 3.4 NNE 15 20 8 11 1015.4 1015.3 0.0
30/01:20pm 22.1 20.7 16.6 71 3.4 NNE 19 22 10 12 1015.8 1015.6 0.0
30/01:00pm 21.7 21.7 17.3 76 2.7 NNE 13 20 7 11 1016.1 1015.9 0.0
30/12:30pm 21.0 21.2 16.8 77 2.6 NE 11 17 6 9 1016.5 1016.3 0.0
30/12:11pm 20.3 20.5 16.7 80 2.2 NNE 11 15 6 8 1016.8 1016.6 0.0
30/12:00pm 20.1 20.1 16.3 79 2.3 NNE 11 17 6 9 1017.0 1016.8 0.0
30/11:48am 20.1 19.8 16.5 80 2.2 NNE 13 20 7 11 1017.1 1016.9 0.0
30/11:30am 20.3 20.6 16.9 81 2.1 N 11 15 6 8 1017.3 1017.1 0.0
30/11:16am 19.8 20.6 17.2 85 1.6 N 9 13 5 7 1017.5 1017.3 0.0
30/11:07am 19.4 20.0 16.8 85 1.6 N 9 13 5 7 1017.6 1017.4 0.0
30/11:00am 19.3 19.9 16.7 85 1.6 N 9 13 5 7 1017.8 1017.6 0.0
30/10:30am 19.1 20.1 16.9 87 1.3 NNW 7 9 4 5 1017.9 1017.7 0.0
30/10:00am 18.6 19.3 17.1 91 0.9 N 9 13 5 7 1018.1 1017.9 0.0
30/09:30am 18.2 19.0 17.2 94 0.6 N 9 15 5 8 1018.2 1018.0 0.0
30/09:00am 17.9 20.3 17.9 100 0.0 NNE 2 7 1 4 1018.3 1018.1 8.6
30/08:30am 17.5 20.1 17.5 100 0.0 CALM 0 0 0 0 1018.3 1018.1 8.6
30/08:14am 17.4 20.0 17.4 100 0.0 CALM 0 0 0 0 1018.3 1018.1 8.6
30/08:01am 17.3 19.8 17.3 100 0.0 CALM 0 0 0 0 1018.2 1018.0 8.6
30/08:00am 17.3 19.8 17.3 100 0.0 CALM 0 0 0 0 1018.2 1018.0 8.6
30/07:49am 17.2 19.3 17.2 100 0.0 NE 2 6 1 3 1018.1 1017.9 8.6
30/07:37am 17.2 19.3 17.2 100 0.0 NNE 2 6 1 3 1017.9 1017.7 8.4
30/07:35am 17.2 19.3 17.2 100 0.0 NNE 2 6 1 3 1017.9 1017.7 8.4
30/07:30am 17.2 19.3 17.2 100 0.0 NNE 2 6 1 3 1017.9 1017.7 8.4
30/07:11am 17.2 18.8 17.0 99 0.1 NNE 4 7 2 4 1017.8 1017.6 8.2
30/07:00am 17.1 19.5 16.9 99 0.1 CALM 0 0 0 0 1017.7 1017.5 8.0
30/06:30am 17.1 18.1 16.9 99 0.1 NE 7 9 4 5 1017.2 1017.0 8.0
30/06:00am 17.0 18.1 17.0 100 0.0 NE 7 9 4 5 1016.9 1016.7 8.0
30/05:30am 16.9 18.1 16.9 100 0.0 NNE 6 7 3 4 1016.9 1016.7 8.0
30/05:29am 16.9 18.1 16.9 100 0.0 NNE 6 7 3 4 1016.9 1016.7 8.0
30/05:24am 16.9 18.1 16.9 100 0.0 NE 6 7 3 4 1016.8 1016.6 8.0
30/05:10am 16.9 18.1 16.9 100 0.0 ENE 6 7 3 4 1016.6 1016.4 8.0
30/05:03am 16.9 18.1 16.9 100 0.0 E 6 9 3 5 1016.6 1016.4 8.0
30/05:00am 16.9 17.9 16.9 100 0.0 E 7 9 4 5 1016.6 1016.4 8.0
30/04:30am 16.9 17.8 16.6 98 0.2 S 7 9 4 5 1016.7 1016.5 8.0
30/04:00am 17.2 18.2 16.4 95 0.5 NNE 6 6 3 3 1016.5 1016.3 8.0
30/03:46am 17.3 18.2 16.2 93 0.7 N 6 7 3 4 1016.7 1016.5 8.0
30/03:30am 17.4 18.7 16.1 92 0.8 N 4 7 2 4 1016.6 1016.4 8.0
30/03:00am 17.5 17.8 16.0 91 0.9 N 9 13 5 7 1016.9 1016.7 8.0
30/02:48am 17.5 17.8 16.0 91 0.9 N 9 13 5 7 1017.0 1016.8 8.0
30/02:30am 17.6 18.3 16.1 91 0.9 NNW 7 13 4 7 1017.1 1016.9 8.0
30/02:00am 17.5 18.2 16.2 92 0.8 N 7 13 4 7 1017.3 1017.1 8.0
30/01:30am 17.3 18.1 15.8 91 0.9 NNE 6 9 3 5 1017.4 1017.2 8.0
30/01:00am 17.4 17.7 15.9 91 0.9 NE 9 11 5 6 1017.4 1017.2 8.0
30/12:34am 17.2 17.9 16.1 93 0.7 NNE 7 11 4 6 1017.4 1017.2 8.0
30/12:30am 17.2 17.5 16.1 93 0.7 NNE 9 13 5 7 1017.4 1017.2 8.0
30/12:00am 17.0 17.5 16.5 97 0.3 NNE 9 13 5 7 1017.4 1017.2 8.0
 
Date/Time
EST
Temp
°C
App
Temp
°C
Dew
Point
Rel
Hum
%
Delta-T
°C
Wind Press
QNH
hPa
Press
MSL
hPa
Rain
since 9 am
mm
Dir
 
Spd
km/h
Gust
km/h
Spd
kts
Gust
kts
29/11:43pm 16.9 17.8 16.7 99 0.1 NE 7 9 4 5 1017.5 1017.3 8.0
29/11:39pm 16.9 17.8 16.7 99 0.1 NE 7 9 4 5 1017.6 1017.4 8.0
29/11:30pm 17.0 17.9 16.7 98 0.2 NE 7 7 4 4 1017.7 1017.5 8.0
29/11:00pm 17.4 17.6 15.7 90 1.0 NNE 9 13 5 7 1017.9 1017.7 8.0
29/10:30pm 17.5 18.2 16.2 92 0.8 NNE 7 9 4 5 1018.0 1017.8 8.0
29/10:00pm 17.4 18.2 16.4 94 0.6 NNE 7 15 4 8 1018.0 1017.8 8.0
29/09:30pm 17.3 18.2 16.7 96 0.4 NE 7 11 4 6 1018.1 1017.9 8.0
29/09:00pm 17.2 16.9 16.4 95 0.5 NNE 13 20 7 11 1017.9 1017.7 8.0
29/08:30pm 17.2 16.9 16.4 95 0.5 NNE 13 19 7 10 1018.0 1017.8 8.0
29/08:00pm 17.0 16.7 16.4 96 0.4 NNE 13 19 7 10 1017.6 1017.4 7.8
29/07:30pm 17.2 17.8 16.7 97 0.3 NNE 9 15 5 8 1017.7 1017.5 7.8
29/07:01pm 17.1 17.6 16.6 97 0.3 NNE 9 13 5 7 1017.8 1017.6 7.8
29/07:00pm 17.1 17.6 16.6 97 0.3 NNE 9 17 5 9 1017.8 1017.6 7.8
29/06:54pm 17.1 16.8 16.5 96 0.4 NNE 13 20 7 11 1017.8 1017.6 7.6
29/06:30pm 17.1 17.8 17.1 100 0.0 NE 9 15 5 8 1017.6 1017.4 7.6
29/06:00pm 17.1 18.2 17.1 100 0.0 NE 7 13 4 7 1017.5 1017.3 7.2
29/05:30pm 17.0 17.7 17.0 100 0.0 NE 9 13 5 7 1017.4 1017.2 6.8
29/05:00pm 17.1 17.7 16.9 99 0.1 ENE 9 11 5 6 1017.5 1017.3 6.4
29/04:37pm 17.1 17.4 16.9 99 0.1 ENE 11 13 6 7 1017.6 1017.4 5.8
29/04:30pm 17.2 17.5 17.0 99 0.1 ENE 11 13 6 7 1017.6 1017.4 5.6
29/04:00pm 17.2 17.7 16.6 96 0.4 ENE 9 11 5 6 1017.8 1017.6 4.0
29/03:40pm 17.2 17.8 15.9 92 0.8 ENE 7 9 4 5 1017.8 1017.6 2.8
29/03:30pm 17.4 18.3 16.1 92 0.8 E 6 9 3 5 1017.8 1017.6 2.0
29/03:13pm 17.5 18.5 16.4 93 0.7 ESE 6 9 3 5 1018.0 1017.8 1.4
29/03:00pm 17.6 18.4 16.3 92 0.8 ESE 7 11 4 6 1017.7 1017.5 1.2
29/02:30pm 17.8 17.9 15.4 86 1.4 W 9 13 5 7 1018.0 1017.8 0.4
29/02:00pm 18.8 17.1 14.7 77 2.4 WNW 17 26 9 14 1017.9 1017.7 0.0
29/01:30pm 20.4 17.0 13.6 65 3.9 NW 24 33 13 18 1017.5 1017.3 0.0
29/01:00pm 20.4 16.2 13.6 65 3.9 WNW 28 41 15 22 1017.6 1017.4 0.0
29/12:34pm 20.6 15.9 13.1 62 4.3 WNW 30 50 16 27 1017.7 1017.5 0.0
29/12:30pm 21.2 15.5 12.9 59 4.8 WNW 35 59 19 32 1017.7 1017.5 0.0
29/12:18pm 22.2 15.4 11.9 52 5.8 NW 39 59 21 32 1017.6 1017.4 0.0
29/12:12pm 23.6 18.4 10.3 43 7.4 NNW 28 59 15 32 1017.4 1017.2 0.0
29/12:00pm 25.6 20.4 9.0 35 9.1 NNW 26 35 14 19 1017.2 1017.0 0.0
29/11:30am 25.9 21.6 9.3 35 9.2 N 22 35 12 19 1017.4 1017.2 0.0
29/11:00am 25.9 21.3 9.7 36 9.0 N 24 35 13 19 1017.8 1017.6 0.0
29/10:30am 26.8 24.5 10.5 36 9.2 NNE 13 22 7 12 1018.4 1018.2 0.0
29/10:00am 23.7 22.4 11.4 46 6.9 E 9 13 5 7 1018.8 1018.6 0.0
29/09:30am 21.0 20.3 11.9 56 5.1 ESE 7 11 4 6 1019.1 1018.9 0.0
29/09:00am 17.3 17.3 11.3 68 3.3 SSE 2 7 1 4 1019.4 1019.2 0.0
29/08:30am 15.4 15.7 11.0 75 2.4 CALM 0 0 0 0 1019.3 1019.1 0.0
29/08:00am 14.8 15.1 11.0 78 2.0 CALM 0 6 0 3 1019.5 1019.3 0.0
29/07:30am 13.6 13.9 11.0 84 1.4 CALM 0 0 0 0 1019.5 1019.3 0.0
29/07:00am 12.6 12.7 10.1 85 1.3 CALM 0 0 0 0 1019.5 1019.3 0.0
29/06:30am 12.8 12.9 10.0 83 1.5 CALM 0 0 0 0 1019.4 1019.2 0.0
29/06:00am 13.1 13.2 10.3 83 1.5 CALM 0 0 0 0 1019.6 1019.4 0.0
29/05:30am 12.7 12.0 10.2 85 1.3 NE 4 6 2 3 1019.6 1019.4 0.0
29/05:00am 12.8 12.5 10.0 83 1.4 ENE 2 7 1 4 1019.4 1019.2 0.0
29/04:30am 13.3 13.4 10.1 81 1.7 CALM 0 0 0 0 1019.2 1019.0 0.0
29/04:00am 12.7 11.3 9.0 78 1.9 ENE 6 9 3 5 1019.1 1018.9 0.0
29/03:30am 13.6 13.7 10.0 79 1.9 CALM 0 0 0 0 1019.0 1018.8 0.0
29/03:00am 14.3 14.1 10.5 78 2.0 SE 2 7 1 4 1019.0 1018.8 0.0
29/02:30am 14.4 13.4 10.4 77 2.1 SSE 6 7 3 4 1019.4 1019.2 0.0
29/02:00am 14.9 13.9 10.9 77 2.1 SSE 7 7 4 4 1019.5 1019.3 0.0
29/01:30am 15.2 14.8 11.2 77 2.2 SE 4 9 2 5 1019.6 1019.4 0.0
29/01:00am 15.8 14.4 9.0 64 3.5 E 6 7 3 4 1019.7 1019.5 0.0
29/12:30am 18.4 16.4 8.7 53 5.1 E 9 13 5 7 1020.0 1019.8 0.0
29/12:00am 18.0 16.3 9.9 59 4.3 ESE 9 11 5 6 1020.0 1019.8 0.0
 
Date/Time
EST
Temp
°C
App
Temp
°C
Dew
Point
Rel
Hum
%
Delta-T
°C
Wind Press
QNH
hPa
Press
MSL
hPa
Rain
since 9 am
mm
Dir
 
Spd
km/h
Gust
km/h
Spd
kts
Gust
kts
28/11:30pm 18.2 16.6 10.1 59 4.3 ESE 9 13 5 7 1020.2 1020.1 0.0
28/11:00pm 18.5 17.0 9.0 54 5.0 E 7 9 4 5 1020.3 1020.2 0.0
28/10:30pm 19.6 17.2 8.6 49 5.8 ENE 11 13 6 7 1020.4 1020.3 0.0
28/10:00pm 20.0 17.6 8.7 48 5.9 ENE 11 13 6 7 1020.4 1020.3 0.0
28/09:30pm 20.8 17.7 8.8 46 6.4 ENE 15 17 8 9 1020.4 1020.3 0.0
28/09:00pm 20.8 18.1 8.8 46 6.4 ENE 13 13 7 7 1020.3 1020.2 0.0
28/08:30pm 21.0 18.3 8.9 46 6.4 NE 13 15 7 8 1020.1 1019.9 0.0
28/08:00pm 21.3 18.7 9.2 46 6.5 NE 13 17 7 9 1020.0 1019.8 0.0
28/07:30pm 21.3 18.3 9.2 46 6.5 NE 15 19 8 10 1019.4 1019.2 0.0
28/07:00pm 20.8 18.3 9.7 49 6.0 ENE 13 13 7 7 1019.5 1019.3 0.0
28/06:30pm 21.2 18.9 9.1 46 6.5 NE 11 17 6 9 1019.4 1019.2 0.0
28/06:00pm 22.4 20.9 9.2 43 7.1 NNE 7 11 4 6 1019.3 1019.1 0.0
28/05:30pm 23.4 21.4 8.7 39 7.9 NNE 9 13 5 7 1019.0 1018.8 0.0
28/05:00pm 25.0 22.6 8.5 35 8.9 N 11 13 6 7 1019.1 1018.9 0.0
28/04:30pm 26.0 22.4 8.5 33 9.5 N 17 20 9 11 1019.0 1018.8 0.0
28/04:00pm 26.4 23.7 8.8 33 9.6 N 13 17 7 9 1019.0 1018.8 0.0
28/03:30pm 26.3 23.2 8.8 33 9.6 N 15 22 8 12 1019.0 1018.8 0.0
28/03:00pm 27.4 24.8 9.3 32 10.0 NNW 13 22 7 12 1019.1 1018.9 0.0
28/02:30pm 28.0 25.3 8.8 30 10.6 NNW 13 22 7 12 1019.2 1019.0 0.0

Other Formats:

Comma delimited format used in spreadsheet applications
http://www.bom.gov.au/fwo/IDN60801/IDN60801.95896.axf

JavaScript Object Notation format (JSON) in row-major order
http://www.bom.gov.au/fwo/IDN60801/IDN60801.95896.json